createdAt,value
2022-09-01T00:00:42.027Z,42.05
2022-09-01T00:02:45.148Z,39.38
2022-09-01T00:04:48.159Z,38.97
2022-09-01T00:06:54.648Z,40.40
2022-09-01T00:09:00.155Z,39.58
2022-09-01T00:11:02.853Z,39.42
2022-09-01T00:13:07.032Z,38.50
2022-09-01T00:15:11.510Z,41.90
2022-09-01T00:17:14.189Z,40.25
2022-09-01T00:19:16.913Z,42.10
2022-09-01T00:21:22.710Z,41.65
2022-09-01T00:23:27.328Z,42.47
2022-09-01T00:25:30.288Z,41.38
2022-09-01T00:27:33.423Z,39.80
2022-09-01T00:29:36.122Z,39.67
2022-09-01T00:31:39.078Z,39.67
2022-09-01T00:33:42.581Z,40.90
2022-09-01T00:35:45.273Z,39.03
2022-09-01T00:37:48.089Z,38.60
2022-09-01T00:39:52.163Z,40.88
2022-09-01T00:41:54.841Z,41.28
2022-09-01T00:44:00.220Z,37.65
2022-09-01T00:46:02.954Z,36.72
2022-09-01T00:48:06.276Z,36.28
2022-09-01T00:50:11.923Z,35.85
2022-09-01T00:52:17.357Z,33.15
2022-09-01T00:54:22.974Z,41.35
2022-09-01T00:56:27.271Z,34.60
2022-09-01T00:58:31.089Z,36.45
2022-09-01T01:00:40.811Z,36.15
2022-09-01T01:02:45.737Z,35.28
2022-09-01T01:04:48.466Z,33.30
2022-09-01T01:06:58.768Z,38.47
2022-09-01T01:09:01.884Z,36.83
2022-09-01T01:11:07.959Z,33.20
2022-09-01T01:13:15.339Z,33.85
2022-09-01T01:15:18.930Z,33.47
2022-09-01T01:17:23.642Z,34.55
2022-09-01T01:19:51.648Z,35.40
2022-09-01T01:22:13.345Z,35.95
2022-09-01T01:24:24.840Z,34.97
2022-09-01T01:26:28.419Z,35.08
2022-09-01T01:28:32.597Z,36.72
2022-09-01T01:30:35.389Z,33.25
2022-09-01T01:32:39.827Z,34.97
2022-09-01T01:34:46.275Z,36.00
2022-09-01T01:36:51.799Z,33.78
2022-09-01T01:38:55.542Z,35.90
2022-09-01T01:41:01.365Z,34.80
2022-09-01T01:43:05.886Z,36.95
2022-09-01T01:45:12.635Z,36.97
2022-09-01T01:47:17.816Z,34.85
2022-09-01T01:49:23.784Z,37.42
2022-09-01T01:51:28.387Z,35.42
2022-09-01T01:53:33.073Z,36.30
2022-09-01T01:55:36.372Z,33.55
2022-09-01T01:57:48.793Z,35.10
2022-09-01T01:59:51.443Z,34.80
2022-09-01T02:01:54.732Z,34.38
2022-09-01T02:04:00.227Z,33.95
2022-09-01T02:06:08.204Z,35.50
2022-09-01T02:08:12.769Z,35.65
2022-09-01T02:10:15.768Z,35.90
2022-09-01T02:12:19.440Z,35.83
2022-09-01T02:14:23.826Z,37.65
2022-09-01T02:16:29.251Z,35.35
2022-09-01T02:18:35.965Z,35.75
2022-09-01T02:20:38.800Z,36.10
2022-09-01T02:22:44.012Z,38.22
2022-09-01T02:24:49.132Z,39.05
2022-09-01T02:26:51.969Z,36.72
2022-09-01T02:28:56.143Z,40.50
2022-09-01T02:31:03.915Z,41.85
2022-09-01T02:33:06.771Z,41.60
2022-09-01T02:35:11.548Z,40.75
2022-09-01T02:37:14.242Z,38.38
2022-09-01T02:39:18.789Z,38.88
2022-09-01T02:41:23.666Z,42.53
2022-09-01T02:43:28.273Z,43.53
2022-09-01T02:45:31.108Z,43.45
2022-09-01T02:47:35.119Z,39.78
2022-09-01T02:49:42.985Z,41.63
2022-09-01T02:51:48.267Z,43.60
2022-09-01T02:53:53.026Z,39.50
2022-09-01T02:55:59.481Z,41.50
2022-09-01T02:58:02.323Z,46.30
2022-09-01T03:00:20.553Z,45.17
2022-09-01T03:02:23.373Z,49.17
2022-09-01T03:04:35.100Z,46.85
2022-09-01T03:06:38.864Z,45.88
2022-09-01T03:08:41.624Z,49.00
2022-09-01T03:10:47.264Z,53.78
2022-09-01T03:12:49.982Z,47.72
2022-09-01T03:14:52.650Z,46.42
2022-09-01T03:16:55.327Z,47.42
2022-09-01T03:18:58.796Z,48.85
2022-09-01T03:21:03.356Z,49.72
2022-09-01T03:23:08.925Z,47.45
2022-09-01T03:25:11.770Z,46.70
2022-09-01T03:27:14.440Z,52.40
2022-09-01T03:29:17.179Z,49.28
2022-09-01T03:31:20.685Z,44.67
2022-09-01T03:33:26.074Z,44.67
2022-09-01T03:35:31.893Z,43.78
2022-09-01T03:37:37.113Z,44.75
2022-09-01T03:39:39.838Z,49.60
2022-09-01T03:41:42.951Z,45.88
2022-09-01T03:43:48.410Z,46.78
2022-09-01T03:45:51.690Z,45.85
2022-09-01T03:47:54.484Z,47.72
2022-09-01T03:49:57.142Z,43.78
2022-09-01T03:52:01.257Z,45.08
2022-09-01T03:54:05.949Z,46.03
2022-09-01T03:56:09.129Z,46.65
2022-09-01T03:58:15.670Z,49.45
2022-09-01T04:00:22.947Z,46.92
2022-09-01T04:02:30.570Z,43.88
2022-09-01T04:04:33.339Z,42.75
2022-09-01T04:06:38.281Z,44.70
2022-09-01T04:08:41.053Z,47.83
2022-09-01T04:10:54.257Z,45.58
2022-09-01T04:12:59.119Z,46.55
2022-09-01T04:15:01.827Z,46.60
2022-09-01T04:17:22.274Z,47.30
2022-09-01T04:19:26.986Z,43.90
2022-09-01T04:21:31.961Z,46.63
2022-09-01T04:23:37.103Z,45.75
2022-09-01T04:25:41.551Z,46.67
2022-09-01T04:27:47.542Z,47.78
2022-09-01T04:29:50.231Z,48.72
2022-09-01T04:31:53.470Z,47.95
2022-09-01T04:33:56.277Z,42.55
2022-09-01T04:36:00.522Z,46.75
2022-09-01T04:38:03.605Z,44.38
2022-09-01T04:40:07.530Z,44.05
2022-09-01T04:42:10.335Z,45.45
2022-09-01T04:44:18.937Z,41.75
2022-09-01T04:46:22.030Z,43.50
2022-09-01T04:48:25.591Z,40.85
2022-09-01T04:50:30.902Z,41.55
2022-09-01T04:52:33.579Z,39.53
2022-09-01T04:54:38.667Z,40.45
2022-09-01T04:56:43.446Z,38.10
2022-09-01T04:58:46.741Z,38.92
2022-09-01T05:00:52.986Z,36.45
2022-09-01T05:03:04.328Z,34.13
2022-09-01T05:05:10.200Z,32.35
2022-09-01T05:07:14.206Z,31.02
2022-09-01T05:09:18.680Z,31.80
2022-09-01T05:11:21.417Z,29.00
2022-09-01T05:13:24.489Z,29.35
2022-09-01T05:15:27.220Z,29.45
2022-09-01T05:17:31.340Z,26.25
2022-09-01T05:19:34.289Z,28.77
2022-09-01T05:21:38.853Z,27.92
2022-09-01T05:23:41.825Z,27.27
2022-09-01T05:25:45.850Z,30.38
2022-09-01T05:27:49.725Z,28.23
2022-09-01T05:29:54.126Z,28.23
2022-09-01T05:31:57.451Z,27.30
2022-09-01T05:34:02.789Z,32.05
2022-09-01T05:36:08.017Z,29.33
2022-09-01T05:38:13.023Z,27.55
2022-09-01T05:40:16.308Z,30.15
2022-09-01T05:42:19.345Z,28.35
2022-09-01T05:44:24.492Z,26.80
2022-09-01T05:46:28.226Z,27.25
2022-09-01T05:48:31.999Z,30.05
2022-09-01T05:50:38.034Z,29.23
2022-09-01T05:52:44.456Z,35.38
2022-09-01T05:54:48.017Z,34.53
2022-09-01T05:56:53.540Z,32.78
2022-09-01T06:01:26.385Z,35.85
2022-09-01T06:03:31.264Z,33.90
2022-09-01T06:05:42.532Z,31.92
2022-09-01T06:07:45.303Z,35.00
2022-09-01T06:09:50.203Z,35.95
2022-09-01T06:11:55.174Z,35.58
2022-09-01T06:13:58.755Z,32.47
2022-09-01T06:16:01.977Z,30.42
2022-09-01T06:18:05.966Z,28.13
2022-09-01T06:20:10.688Z,30.40
2022-09-01T06:22:15.260Z,31.30
2022-09-01T06:24:18.034Z,27.43
2022-09-01T06:26:23.635Z,26.67
2022-09-01T06:28:26.732Z,25.37
2022-09-01T06:30:29.922Z,25.77
2022-09-01T06:32:34.386Z,27.70
2022-09-01T06:34:37.571Z,24.23
2022-09-01T06:36:42.972Z,24.13
2022-09-01T06:38:47.054Z,26.03
2022-09-01T06:40:51.210Z,25.07
2022-09-01T06:42:59.990Z,24.37
2022-09-01T06:45:02.791Z,24.07
2022-09-01T06:47:06.079Z,25.53
2022-09-01T06:49:11.560Z,25.73
2022-09-01T06:51:18.587Z,24.63
2022-09-01T06:53:39.116Z,22.50
2022-09-01T06:55:43.897Z,22.40
2022-09-01T07:00:18.786Z,22.93
2022-09-01T07:02:26.629Z,22.77
2022-09-01T07:04:31.480Z,21.07
2022-09-01T07:18:58.381Z,16.77
2022-09-01T07:21:07.961Z,15.30
2022-09-01T07:23:25.928Z,15.87
2022-09-01T07:25:34.983Z,16.80
2022-09-01T07:27:52.551Z,16.90
2022-09-01T07:29:58.322Z,16.70
2022-09-01T07:34:41.470Z,17.30
2022-09-01T07:41:43.316Z,23.57
2022-09-01T07:43:57.261Z,17.17
2022-09-01T07:46:00.802Z,18.20
2022-09-01T07:53:13.020Z,19.03
2022-09-01T07:55:17.491Z,21.03
2022-09-01T07:57:22.208Z,18.60
2022-09-01T07:59:29.414Z,18.53
2022-09-01T08:01:32.215Z,19.10
2022-09-01T08:03:34.935Z,18.87
2022-09-01T08:05:37.654Z,18.43
2022-09-01T08:07:56.134Z,19.23
2022-09-01T08:10:01.390Z,19.87
2022-09-01T08:12:05.595Z,18.60
2022-09-01T08:14:10.250Z,18.97
2022-09-01T08:16:16.859Z,17.10
2022-09-01T08:18:21.236Z,18.50
2022-09-01T08:20:24.126Z,18.17
2022-09-01T08:22:26.847Z,18.20
2022-09-01T08:24:29.650Z,17.57
2022-09-01T08:26:32.431Z,16.33
2022-09-01T08:28:35.507Z,17.90
2022-09-01T08:30:40.576Z,17.03
2022-09-01T08:32:44.640Z,17.63
2022-09-01T08:34:47.341Z,16.70
2022-09-01T08:36:50.015Z,17.20
2022-09-01T08:38:53.280Z,17.87
2022-09-01T08:40:58.317Z,16.37
2022-09-01T08:43:16.267Z,16.97
2022-09-01T08:45:23.950Z,15.70
2022-09-01T08:47:35.521Z,14.60
2022-09-01T08:49:44.367Z,15.43
2022-09-01T08:51:51.636Z,15.40
2022-09-01T08:54:02.244Z,15.80
2022-09-01T08:56:06.744Z,14.43
2022-09-01T08:58:12.127Z,13.97
2022-09-01T09:00:18.184Z,14.73
2022-09-01T09:02:34.117Z,13.73
2022-09-01T09:04:57.165Z,13.50
2022-09-01T09:07:10.592Z,12.97
2022-09-01T09:09:16.670Z,12.83
2022-09-01T09:11:35.696Z,13.20
2022-09-01T09:13:52.946Z,13.70
2022-09-01T09:16:07.771Z,12.77
2022-09-01T09:18:38.714Z,13.90
2022-09-01T09:20:45.321Z,13.77
2022-09-01T09:22:50.511Z,14.93
2022-09-01T09:24:56.691Z,15.50
2022-09-01T09:27:00.430Z,13.87
2022-09-01T09:29:03.190Z,12.90
2022-09-01T09:31:28.897Z,12.63
2022-09-01T09:33:57.776Z,11.50
2022-09-01T09:36:19.069Z,12.70
2022-09-01T09:38:28.876Z,11.00
2022-09-01T09:40:43.323Z,12.03
2022-09-01T09:43:04.401Z,11.90
2022-09-01T09:45:19.149Z,12.07
2022-09-01T09:47:44.150Z,11.97
2022-09-01T09:49:48.929Z,11.80
2022-09-01T09:51:55.560Z,10.50
2022-09-01T09:54:13.225Z,11.03
2022-09-01T09:56:19.831Z,10.60
2022-09-01T09:58:26.623Z,10.03
2022-09-01T10:00:32.226Z,9.27
2022-09-01T10:02:37.809Z,8.90
2022-09-01T10:04:40.657Z,8.83
2022-09-01T10:06:46.826Z,8.47
2022-09-01T10:08:51.126Z,8.60
2022-09-01T10:10:57.545Z,7.80
2022-09-01T10:13:02.316Z,7.10
2022-09-01T10:15:12.698Z,6.47
2022-09-01T10:17:20.302Z,7.53
2022-09-01T10:19:24.227Z,7.37
2022-09-01T10:21:32.895Z,6.03
2022-09-01T10:23:38.754Z,7.20
2022-09-01T10:25:47.575Z,7.23
2022-09-01T10:27:58.399Z,7.70
2022-09-01T10:30:12.413Z,7.60
2022-09-01T10:32:35.163Z,7.60
2022-09-01T10:34:42.050Z,7.77
2022-09-01T10:36:47.257Z,7.63
2022-09-01T10:39:04.378Z,7.60
2022-09-01T10:41:14.194Z,7.70
2022-09-01T10:43:41.003Z,7.20
2022-09-01T10:45:44.474Z,7.40
2022-09-01T10:47:47.488Z,8.40
2022-09-01T10:50:07.616Z,7.80
2022-09-01T10:52:14.193Z,7.50
2022-09-01T10:54:55.979Z,7.57
2022-09-01T10:57:03.887Z,7.50
2022-09-01T10:59:37.400Z,7.37
2022-09-01T11:02:28.436Z,6.30
2022-09-01T11:05:12.958Z,6.50
2022-09-01T11:07:50.325Z,6.60
2022-09-01T11:10:31.965Z,7.20
2022-09-01T11:12:59.827Z,6.00
2022-09-01T11:15:07.067Z,6.37
2022-09-01T11:17:17.668Z,6.73
2022-09-01T11:19:42.921Z,6.60
2022-09-01T11:21:48.377Z,7.10
2022-09-01T11:23:52.755Z,6.77
2022-09-01T11:28:44.419Z,7.20
2022-09-01T11:30:55.763Z,7.10
2022-09-01T11:33:05.193Z,7.83
2022-09-01T11:35:18.076Z,7.27
2022-09-01T11:37:27.524Z,6.97
2022-09-01T11:39:40.609Z,7.57
2022-09-01T11:41:57.596Z,8.03
2022-09-01T11:44:11.821Z,8.10
2022-09-01T11:46:22.854Z,6.83
2022-09-01T11:48:26.868Z,6.87
2022-09-01T11:50:34.354Z,7.07
2022-09-01T11:52:41.394Z,7.40
2022-09-01T11:54:46.626Z,7.80
2022-09-01T11:56:49.332Z,7.30
2022-09-01T11:58:53.090Z,6.83
2022-09-01T12:00:57.469Z,8.10
2022-09-01T12:03:01.892Z,7.53
2022-09-01T12:05:28.474Z,6.20
2022-09-01T12:07:40.493Z,6.90
2022-09-01T12:09:45.347Z,5.73
2022-09-01T12:11:49.231Z,6.03
2022-09-01T12:13:58.923Z,6.47
2022-09-01T12:16:19.484Z,6.70
2022-09-01T12:18:26.895Z,6.10
2022-09-01T12:20:32.409Z,6.30
2022-09-01T12:22:35.646Z,6.40
2022-09-01T12:24:38.687Z,6.77
2022-09-01T12:26:42.457Z,6.80
2022-09-01T12:28:45.890Z,7.00
2022-09-01T12:30:49.943Z,7.20
2022-09-01T12:33:22.960Z,6.83
2022-09-01T12:35:22.756Z,6.80
2022-09-01T12:37:27.321Z,7.47
2022-09-01T12:39:35.507Z,7.20
2022-09-01T12:41:40.519Z,7.27
2022-09-01T12:43:45.468Z,6.83
2022-09-01T12:45:48.808Z,7.40
2022-09-01T12:47:52.105Z,7.50
2022-09-01T12:49:55.721Z,6.60
2022-09-01T12:52:20.314Z,7.37
2022-09-01T12:54:26.516Z,6.70
2022-09-01T12:56:31.916Z,7.00
2022-09-01T12:58:35.110Z,6.50
2022-09-01T13:00:55.671Z,6.80
2022-09-01T13:03:09.495Z,7.13
2022-09-01T13:05:32.656Z,7.40
2022-09-01T13:07:36.905Z,7.10
2022-09-01T13:09:39.594Z,6.83
2022-09-01T13:14:05.820Z,6.57
2022-09-01T13:16:13.071Z,6.40
2022-09-01T13:18:17.267Z,6.33
2022-09-01T13:20:20.237Z,6.20
2022-09-01T13:22:22.931Z,6.10
2022-09-01T13:24:30.494Z,6.20
2022-09-01T13:26:35.027Z,6.10
2022-09-01T13:28:40.400Z,6.60
2022-09-01T13:30:46.793Z,6.53
2022-09-01T13:35:15.289Z,6.70
2022-09-01T13:37:18.334Z,6.67
2022-09-01T13:39:22.814Z,7.50
2022-09-01T13:41:27.091Z,6.90
2022-09-01T13:43:31.729Z,6.60
2022-09-01T13:45:34.595Z,6.60
2022-09-01T13:48:15.061Z,7.73
2022-09-01T13:50:10.302Z,7.13
2022-09-01T13:52:13.874Z,7.40
2022-09-01T13:54:16.614Z,7.47
2022-09-01T13:56:19.427Z,7.53
2022-09-01T13:58:23.483Z,8.70
2022-09-01T14:00:30.066Z,7.53
2022-09-01T14:02:32.826Z,7.10
2022-09-01T14:04:35.608Z,7.67
2022-09-01T14:06:40.822Z,7.70
2022-09-01T14:08:43.561Z,8.17
2022-09-01T14:10:48.968Z,7.30
2022-09-01T14:12:52.443Z,8.20
2022-09-01T14:15:15.571Z,7.80
2022-09-01T14:17:19.341Z,7.70
2022-09-01T14:19:22.964Z,7.90
2022-09-01T14:21:25.666Z,8.27
2022-09-01T14:23:29.110Z,7.43
2022-09-01T14:25:33.370Z,7.90
2022-09-01T14:27:36.059Z,7.17
2022-09-01T14:31:44.956Z,5.57
2022-09-01T14:33:49.045Z,6.63
2022-09-01T14:35:51.756Z,5.90
2022-09-01T14:37:55.791Z,6.20
2022-09-01T14:39:59.436Z,6.47
2022-09-01T14:42:06.792Z,5.60
2022-09-01T14:44:09.997Z,6.03
2022-09-01T14:46:13.009Z,5.67
2022-09-01T14:48:19.433Z,5.83
2022-09-01T14:50:26.967Z,5.10
2022-09-01T14:52:30.651Z,5.27
2022-09-01T14:54:34.002Z,5.13
2022-09-01T14:56:36.725Z,5.60
2022-09-01T14:58:40.699Z,5.17
2022-09-01T15:00:45.094Z,5.83
2022-09-01T15:02:48.874Z,5.80
2022-09-01T15:04:53.265Z,5.53
2022-09-01T15:06:57.286Z,5.37
2022-09-01T15:09:00.639Z,5.30
2022-09-01T15:11:03.331Z,5.30
2022-09-01T15:13:06.036Z,5.40
2022-09-01T15:15:10.563Z,5.43
2022-09-01T15:17:13.256Z,5.10
2022-09-01T15:19:16.428Z,5.80
2022-09-01T15:21:22.059Z,5.50
2022-09-01T15:23:29.931Z,5.60
2022-09-01T15:25:33.100Z,5.83
2022-09-01T15:27:40.867Z,5.70
2022-09-01T15:29:50.374Z,5.53
2022-09-01T15:31:55.841Z,5.90
2022-09-01T15:33:59.923Z,5.70
2022-09-01T15:36:02.727Z,6.10
2022-09-01T15:38:07.739Z,6.37
2022-09-01T15:40:11.221Z,5.90
2022-09-01T15:44:23.442Z,6.20
2022-09-01T15:46:31.853Z,6.00
2022-09-01T15:48:34.632Z,5.90
2022-09-01T15:50:37.325Z,5.80
2022-09-01T15:52:49.731Z,6.10
2022-09-01T15:54:53.897Z,6.17
2022-09-01T15:56:56.567Z,5.87
2022-09-01T15:59:01.499Z,6.53
2022-09-01T16:01:04.790Z,6.50
2022-09-01T16:03:08.216Z,5.63
2022-09-01T16:05:12.103Z,6.23
2022-09-01T16:07:14.906Z,7.23
2022-09-01T16:09:20.812Z,6.57
2022-09-01T16:11:25.912Z,6.10
2022-09-01T16:13:28.741Z,6.80
2022-09-01T16:15:31.789Z,6.80
2022-09-01T16:17:48.292Z,6.03
2022-09-01T16:19:55.922Z,6.37
2022-09-01T16:22:07.477Z,7.10
2022-09-01T16:24:12.982Z,6.33
2022-09-01T16:26:17.929Z,5.83
2022-09-01T16:28:27.918Z,6.67
2022-09-01T16:30:30.903Z,6.00
2022-09-01T16:32:36.835Z,6.37
2022-09-01T16:34:46.665Z,6.83
2022-09-01T16:36:58.813Z,6.83
2022-09-01T16:39:08.404Z,7.23
2022-09-01T16:41:20.824Z,6.87
2022-09-01T16:43:32.993Z,7.40
2022-09-01T16:45:51.278Z,7.47
2022-09-01T16:48:01.826Z,7.37
2022-09-01T16:50:16.209Z,6.70
2022-09-01T16:52:25.354Z,7.87
2022-09-01T16:54:38.061Z,7.20
2022-09-01T16:56:55.112Z,6.80
2022-09-01T16:59:12.345Z,6.80
2022-09-01T17:01:27.170Z,7.03
2022-09-01T17:03:42.430Z,6.77
2022-09-01T17:05:55.401Z,6.40
2022-09-01T17:08:06.037Z,7.07
2022-09-01T17:10:22.188Z,7.10
2022-09-01T17:12:34.287Z,6.93
2022-09-01T17:14:47.725Z,7.07
2022-09-01T17:16:54.566Z,7.10
2022-09-01T17:18:59.338Z,6.10
2022-09-01T17:21:08.116Z,6.83
2022-09-01T17:23:15.513Z,8.27
2022-09-01T17:25:36.122Z,6.40
2022-09-01T17:27:51.004Z,6.07
2022-09-01T17:29:57.118Z,6.33
2022-09-01T17:32:06.339Z,7.37
2022-09-01T17:34:18.843Z,6.10
2022-09-01T17:36:33.668Z,6.10
2022-09-01T17:38:46.317Z,5.87
2022-09-01T17:40:59.937Z,6.17
2022-09-01T17:43:08.990Z,6.73
2022-09-01T17:45:25.046Z,6.53
2022-09-01T17:47:37.074Z,6.60
2022-09-01T17:49:49.844Z,5.90
2022-09-01T17:51:59.706Z,6.57
2022-09-01T17:54:12.419Z,6.40
2022-09-01T17:56:32.973Z,6.50
2022-09-01T17:58:49.664Z,7.13
2022-09-01T18:01:01.594Z,6.60
2022-09-01T18:03:22.583Z,6.70
2022-09-01T18:05:28.000Z,6.37
2022-09-01T18:07:53.346Z,6.30
2022-09-01T18:10:02.990Z,6.87
2022-09-01T18:12:10.520Z,6.70
2022-09-01T18:14:20.463Z,6.57
2022-09-01T18:16:27.892Z,6.27
2022-09-01T18:18:39.121Z,6.63
2022-09-01T18:20:47.271Z,6.70
2022-09-01T18:22:56.690Z,7.80
2022-09-01T18:25:06.500Z,7.27
2022-09-01T18:27:12.342Z,6.87
2022-09-01T18:29:16.265Z,7.20
2022-09-01T18:31:49.800Z,7.47
2022-09-01T18:34:03.367Z,7.00
2022-09-01T18:36:20.392Z,6.67
2022-09-01T18:38:32.810Z,10.40
2022-09-01T18:40:44.651Z,6.53
2022-09-01T18:42:53.470Z,6.80
2022-09-01T18:45:05.484Z,7.57
2022-09-01T18:47:12.981Z,6.70
2022-09-01T18:49:24.868Z,7.43
2022-09-01T18:51:45.338Z,6.83
2022-09-01T18:53:52.846Z,7.07
2022-09-01T18:56:01.713Z,7.10
2022-09-01T18:58:08.931Z,7.17
2022-09-01T19:00:19.056Z,7.37
2022-09-01T19:02:37.865Z,8.53
2022-09-01T19:04:42.777Z,7.67
2022-09-01T19:06:59.688Z,6.90
2022-09-01T19:09:14.385Z,7.30
2022-09-01T19:11:27.908Z,7.27
2022-09-01T19:13:47.753Z,7.80
2022-09-01T19:15:58.961Z,7.73
2022-09-01T19:18:13.706Z,7.27
2022-09-01T19:20:24.193Z,7.13
2022-09-01T19:22:36.536Z,8.20
2022-09-01T19:24:44.521Z,7.50
2022-09-01T19:26:51.679Z,7.07
2022-09-01T19:28:59.409Z,7.70
2022-09-01T19:31:08.091Z,6.93
2022-09-01T19:33:16.554Z,7.83
2022-09-01T19:35:19.964Z,7.20
2022-09-01T19:37:23.741Z,6.77
2022-09-01T19:39:31.828Z,7.80
2022-09-01T19:41:38.732Z,8.63
2022-09-01T19:43:42.938Z,7.87
2022-09-01T19:45:56.887Z,7.73
2022-09-01T19:48:07.178Z,7.20
2022-09-01T19:50:18.621Z,7.80
2022-09-01T19:52:32.231Z,7.60
2022-09-01T19:54:44.042Z,7.90
2022-09-01T19:56:52.688Z,11.47
2022-09-01T19:59:04.706Z,7.80
2022-09-01T20:01:15.228Z,7.73
2022-09-01T20:03:23.137Z,7.33
2022-09-01T20:05:32.851Z,7.30
2022-09-01T20:07:41.121Z,6.87
2022-09-01T20:09:51.938Z,6.60
2022-09-01T20:11:58.662Z,6.80
2022-09-01T20:14:15.471Z,7.10
2022-09-01T20:16:28.033Z,7.10
2022-09-01T20:18:35.002Z,7.20
2022-09-01T20:20:44.893Z,7.13
2022-09-01T20:22:56.310Z,7.27
2022-09-01T20:25:10.550Z,7.73
2022-09-01T20:27:24.261Z,6.87
2022-09-01T20:29:37.021Z,7.03
2022-09-01T20:31:45.326Z,7.10
2022-09-01T20:33:53.641Z,6.97
2022-09-01T20:36:05.675Z,7.33
2022-09-01T20:38:31.909Z,7.20
2022-09-01T20:40:40.788Z,6.90
2022-09-01T20:42:52.157Z,7.77
2022-09-01T20:44:58.138Z,7.10
2022-09-01T20:47:00.876Z,6.93
2022-09-01T20:49:04.925Z,7.90
2022-09-01T20:51:15.266Z,7.00
2022-09-01T20:53:29.202Z,6.53
2022-09-01T20:55:37.013Z,6.83
2022-09-01T20:57:51.041Z,7.30
2022-09-01T20:59:56.823Z,7.07
2022-09-01T21:02:07.534Z,6.60
2022-09-01T21:04:18.530Z,7.23
2022-09-01T21:06:45.805Z,7.13
2022-09-01T21:08:53.175Z,7.47
2022-09-01T21:11:01.321Z,6.80
2022-09-01T21:13:18.292Z,7.50
2022-09-01T21:15:34.331Z,8.73
2022-09-01T21:17:43.880Z,6.80
2022-09-01T21:19:59.794Z,7.90
2022-09-01T21:22:08.147Z,8.20
2022-09-01T21:24:10.795Z,7.13
2022-09-01T21:26:13.915Z,7.43
2022-09-01T21:28:19.946Z,7.03
2022-09-01T21:30:25.171Z,8.00
2022-09-01T21:32:29.994Z,7.00
2022-09-01T21:34:32.835Z,7.40
2022-09-01T21:36:35.648Z,9.27
2022-09-01T21:38:40.013Z,7.07
2022-09-01T21:40:44.059Z,8.07
2022-09-01T21:42:50.410Z,7.30
2022-09-01T21:44:54.440Z,7.00
2022-09-01T21:46:57.769Z,6.83
2022-09-01T21:49:00.742Z,6.90
2022-09-01T21:51:04.901Z,7.70
2022-09-01T21:53:09.533Z,7.17
2022-09-01T21:55:14.561Z,7.00
2022-09-01T21:57:17.883Z,7.30
2022-09-01T21:59:20.934Z,7.17
2022-09-01T22:01:25.804Z,7.40
2022-09-01T22:03:28.665Z,7.63
2022-09-01T22:05:33.132Z,7.77
2022-09-01T22:07:38.761Z,7.23
2022-09-01T22:09:41.428Z,6.93
2022-09-01T22:11:45.674Z,6.93
2022-09-01T22:13:48.424Z,6.47
2022-09-01T22:15:53.567Z,6.87
2022-09-01T22:17:58.224Z,6.60
2022-09-01T22:20:03.161Z,7.07
2022-09-01T22:22:06.828Z,6.47
2022-09-01T22:24:10.150Z,7.20
2022-09-01T22:26:20.805Z,6.80
2022-09-01T22:28:24.966Z,7.20
2022-09-01T22:30:28.891Z,7.70
2022-09-01T22:32:35.109Z,6.80
2022-09-01T22:34:38.064Z,7.47
2022-09-01T22:36:46.157Z,7.60
2022-09-01T22:38:49.157Z,6.13
2022-09-01T22:40:55.090Z,7.30
2022-09-01T22:42:58.815Z,6.90
2022-09-01T22:45:03.579Z,7.03
2022-09-01T22:47:07.241Z,6.50
2022-09-01T22:49:12.824Z,6.97
2022-09-01T22:51:17.385Z,6.40
2022-09-01T22:53:22.817Z,8.63
2022-09-01T22:55:28.309Z,7.27
2022-09-01T22:57:31.032Z,6.60
2022-09-01T22:59:33.726Z,6.13
2022-09-01T23:01:41.989Z,6.60
2022-09-01T23:03:45.632Z,7.20
2022-09-01T23:05:49.376Z,7.20
2022-09-01T23:07:52.700Z,6.40
2022-09-01T23:09:55.470Z,6.87
2022-09-01T23:11:58.185Z,7.03
2022-09-01T23:14:00.893Z,7.40
2022-09-01T23:16:06.042Z,7.17
2022-09-01T23:18:10.170Z,6.77
2022-09-01T23:20:15.003Z,6.50
2022-09-01T23:22:17.869Z,7.53
2022-09-01T23:24:21.142Z,6.93
2022-09-01T23:26:24.040Z,6.97
2022-09-01T23:28:26.742Z,6.40
2022-09-01T23:30:29.417Z,7.27
2022-09-01T23:32:32.118Z,6.70
2022-09-01T23:34:36.168Z,6.70
2022-09-01T23:36:38.911Z,6.30
2022-09-01T23:38:42.497Z,8.07
2022-09-01T23:40:47.247Z,6.70
2022-09-01T23:42:50.035Z,8.53
2022-09-01T23:44:52.770Z,6.83
2022-09-01T23:46:55.406Z,7.50
2022-09-01T23:48:58.745Z,6.77
2022-09-01T23:51:09.230Z,6.20
2022-09-01T23:53:11.907Z,6.60
2022-09-01T23:55:14.876Z,6.78
2022-09-01T23:57:18.989Z,6.20
2022-09-01T23:59:24.306Z,7.25
